sensor_id;sensor_type;location;lat;lon;timestamp;temperature;humidity
12926;DHT22;6529;50.566;9.774;2023-04-19T00:00:42;9.20;99.90
12926;DHT22;6529;50.566;9.774;2023-04-19T00:03:09;9.20;99.90
12926;DHT22;6529;50.566;9.774;2023-04-19T00:05:35;9.20;99.90
12926;DHT22;6529;50.566;9.774;2023-04-19T00:08:03;9.20;99.90
12926;DHT22;6529;50.566;9.774;2023-04-19T00:10:28;9.20;99.90
12926;DHT22;6529;50.566;9.774;2023-04-19T00:12:54;9.20;99.90
12926;DHT22;6529;50.566;9.774;2023-04-19T00:15:20;9.20;99.90
12926;DHT22;6529;50.566;9.774;2023-04-19T00:17:45;9.30;99.90
12926;DHT22;6529;50.566;9.774;2023-04-19T00:20:11;9.30;99.90
12926;DHT22;6529;50.566;9.774;2023-04-19T00:22:38;9.20;99.90
12926;DHT22;6529;50.566;9.774;2023-04-19T00:25:03;9.30;99.90
12926;DHT22;6529;50.566;9.774;2023-04-19T00:27:29;9.30;99.90
12926;DHT22;6529;50.566;9.774;2023-04-19T00:29:55;9.30;99.90
12926;DHT22;6529;50.566;9.774;2023-04-19T00:32:22;9.30;99.90
12926;DHT22;6529;50.566;9.774;2023-04-19T00:34:48;9.20;99.90
12926;DHT22;6529;50.566;9.774;2023-04-19T00:37:13;9.20;99.90
12926;DHT22;6529;50.566;9.774;2023-04-19T00:39:39;9.20;99.90
12926;DHT22;6529;50.566;9.774;2023-04-19T00:42:05;9.10;99.90
12926;DHT22;6529;50.566;9.774;2023-04-19T00:44:30;9.10;99.90
12926;DHT22;6529;50.566;9.774;2023-04-19T00:46:56;9.10;99.90
12926;DHT22;6529;50.566;9.774;2023-04-19T00:49:22;9.20;99.90
12926;DHT22;6529;50.566;9.774;2023-04-19T00:51:49;9.10;99.90
12926;DHT22;6529;50.566;9.774;2023-04-19T00:54:15;9.20;99.90
12926;DHT22;6529;50.566;9.774;2023-04-19T00:56:42;9.20;99.90
12926;DHT22;6529;50.566;9.774;2023-04-19T00:59:08;9.20;99.90
12926;DHT22;6529;50.566;9.774;2023-04-19T01:01:34;9.20;99.90
12926;DHT22;6529;50.566;9.774;2023-04-19T01:04:00;9.20;99.90
12926;DHT22;6529;50.566;9.774;2023-04-19T01:06:27;9.10;99.90
12926;DHT22;6529;50.566;9.774;2023-04-19T01:08:54;9.10;99.90
12926;DHT22;6529;50.566;9.774;2023-04-19T01:11:21;9.10;99.90
12926;DHT22;6529;50.566;9.774;2023-04-19T01:13:46;9.10;99.90
12926;DHT22;6529;50.566;9.774;2023-04-19T01:16:12;9.10;99.90
12926;DHT22;6529;50.566;9.774;2023-04-19T01:18:38;9.10;99.90
12926;DHT22;6529;50.566;9.774;2023-04-19T01:21:05;9.10;99.90
12926;DHT22;6529;50.566;9.774;2023-04-19T01:23:31;9.10;99.90
12926;DHT22;6529;50.566;9.774;2023-04-19T01:25:57;9.20;99.90
12926;DHT22;6529;50.566;9.774;2023-04-19T01:28:22;9.20;99.90
12926;DHT22;6529;50.566;9.774;2023-04-19T01:30:48;9.10;99.90
12926;DHT22;6529;50.566;9.774;2023-04-19T01:33:18;9.10;99.90
12926;DHT22;6529;50.566;9.774;2023-04-19T01:35:44;9.10;99.90
12926;DHT22;6529;50.566;9.774;2023-04-19T01:38:11;9.10;99.90
12926;DHT22;6529;50.566;9.774;2023-04-19T01:40:36;9.10;99.90
12926;DHT22;6529;50.566;9.774;2023-04-19T01:43:02;9.00;99.90
12926;DHT22;6529;50.566;9.774;2023-04-19T01:45:27;9.00;99.90
12926;DHT22;6529;50.566;9.774;2023-04-19T01:47:53;9.00;99.90
12926;DHT22;6529;50.566;9.774;2023-04-19T01:50:20;9.00;99.90
12926;DHT22;6529;50.566;9.774;2023-04-19T01:52:46;9.00;99.90
12926;DHT22;6529;50.566;9.774;2023-04-19T01:55:11;8.90;99.90
12926;DHT22;6529;50.566;9.774;2023-04-19T01:57:37;8.80;99.90
12926;DHT22;6529;50.566;9.774;2023-04-19T02:00:03;8.80;99.90
12926;DHT22;6529;50.566;9.774;2023-04-19T02:02:29;8.80;99.90
12926;DHT22;6529;50.566;9.774;2023-04-19T02:04:54;8.80;99.90
12926;DHT22;6529;50.566;9.774;2023-04-19T02:07:20;8.80;99.90
12926;DHT22;6529;50.566;9.774;2023-04-19T02:09:45;8.80;99.90
12926;DHT22;6529;50.566;9.774;2023-04-19T02:12:11;8.80;99.90
12926;DHT22;6529;50.566;9.774;2023-04-19T02:14:36;8.80;99.90
12926;DHT22;6529;50.566;9.774;2023-04-19T02:17:02;8.80;99.90
12926;DHT22;6529;50.566;9.774;2023-04-19T02:19:28;8.90;99.90
12926;DHT22;6529;50.566;9.774;2023-04-19T02:21:53;8.90;99.90
12926;DHT22;6529;50.566;9.774;2023-04-19T02:24:23;8.80;99.90
12926;DHT22;6529;50.566;9.774;2023-04-19T02:26:49;8.80;99.90
12926;DHT22;6529;50.566;9.774;2023-04-19T02:29:14;8.80;99.90
12926;DHT22;6529;50.566;9.774;2023-04-19T02:31:41;8.80;99.90
12926;DHT22;6529;50.566;9.774;2023-04-19T02:34:07;8.80;99.90
12926;DHT22;6529;50.566;9.774;2023-04-19T02:36:32;8.70;99.90
12926;DHT22;6529;50.566;9.774;2023-04-19T02:38:58;8.70;99.90
12926;DHT22;6529;50.566;9.774;2023-04-19T02:41:23;8.80;99.90
12926;DHT22;6529;50.566;9.774;2023-04-19T02:43:49;8.80;99.90
12926;DHT22;6529;50.566;9.774;2023-04-19T02:46:15;8.70;99.90
12926;DHT22;6529;50.566;9.774;2023-04-19T02:48:40;8.70;99.90
12926;DHT22;6529;50.566;9.774;2023-04-19T02:51:06;8.70;99.90
12926;DHT22;6529;50.566;9.774;2023-04-19T02:53:32;8.80;99.90
12926;DHT22;6529;50.566;9.774;2023-04-19T02:55:57;8.80;99.90
12926;DHT22;6529;50.566;9.774;2023-04-19T02:58:23;8.80;99.90
12926;DHT22;6529;50.566;9.774;2023-04-19T03:00:49;8.70;99.90
12926;DHT22;6529;50.566;9.774;2023-04-19T03:03:15;8.70;99.90
12926;DHT22;6529;50.566;9.774;2023-04-19T03:05:40;8.70;99.90
12926;DHT22;6529;50.566;9.774;2023-04-19T03:08:06;8.60;99.90
12926;DHT22;6529;50.566;9.774;2023-04-19T03:10:31;8.60;99.90
12926;DHT22;6529;50.566;9.774;2023-04-19T03:12:57;8.50;99.90
12926;DHT22;6529;50.566;9.774;2023-04-19T03:15:22;8.50;99.90
12926;DHT22;6529;50.566;9.774;2023-04-19T03:17:48;8.50;99.90
12926;DHT22;6529;50.566;9.774;2023-04-19T03:20:13;8.50;99.90
12926;DHT22;6529;50.566;9.774;2023-04-19T03:22:41;8.60;99.90
12926;DHT22;6529;50.566;9.774;2023-04-19T03:25:07;8.60;99.90
12926;DHT22;6529;50.566;9.774;2023-04-19T03:27:36;8.60;99.90
12926;DHT22;6529;50.566;9.774;2023-04-19T03:30:01;8.60;99.90
12926;DHT22;6529;50.566;9.774;2023-04-19T03:32:27;8.60;99.90
12926;DHT22;6529;50.566;9.774;2023-04-19T03:34:53;8.60;99.90
12926;DHT22;6529;50.566;9.774;2023-04-19T03:37:18;8.50;99.90
12926;DHT22;6529;50.566;9.774;2023-04-19T03:39:44;8.50;99.90
12926;DHT22;6529;50.566;9.774;2023-04-19T03:42:09;8.50;99.90
12926;DHT22;6529;50.566;9.774;2023-04-19T03:44:35;8.50;99.90
12926;DHT22;6529;50.566;9.774;2023-04-19T03:47:00;8.60;99.90
12926;DHT22;6529;50.566;9.774;2023-04-19T03:49:26;8.60;99.90
12926;DHT22;6529;50.566;9.774;2023-04-19T03:51:52;8.50;99.90
12926;DHT22;6529;50.566;9.774;2023-04-19T03:54:17;8.60;99.90
12926;DHT22;6529;50.566;9.774;2023-04-19T03:56:43;8.60;99.90
12926;DHT22;6529;50.566;9.774;2023-04-19T03:59:08;8.70;99.90
12926;DHT22;6529;50.566;9.774;2023-04-19T04:01:34;8.70;99.90
12926;DHT22;6529;50.566;9.774;2023-04-19T04:04:08;8.70;99.90
12926;DHT22;6529;50.566;9.774;2023-04-19T04:06:34;8.70;99.90
12926;DHT22;6529;50.566;9.774;2023-04-19T04:09:00;8.60;99.90
12926;DHT22;6529;50.566;9.774;2023-04-19T04:11:26;8.60;99.90
12926;DHT22;6529;50.566;9.774;2023-04-19T04:13:52;8.60;99.90
12926;DHT22;6529;50.566;9.774;2023-04-19T04:16:17;8.50;99.90
12926;DHT22;6529;50.566;9.774;2023-04-19T04:18:43;8.60;99.90
12926;DHT22;6529;50.566;9.774;2023-04-19T04:21:08;8.60;99.90
12926;DHT22;6529;50.566;9.774;2023-04-19T04:23:34;8.60;99.10
12926;DHT22;6529;50.566;9.774;2023-04-19T04:26:00;8.50;99.90
12926;DHT22;6529;50.566;9.774;2023-04-19T04:28:27;8.50;55.10
12926;DHT22;6529;50.566;9.774;2023-04-19T04:30:54;8.50;46.30
12926;DHT22;6529;50.566;9.774;2023-04-19T04:33:23;8.50;1.00
12926;DHT22;6529;50.566;9.774;2023-04-19T04:35:50;8.50;1.00
12926;DHT22;6529;50.566;9.774;2023-04-19T04:38:17;8.50;1.00
12926;DHT22;6529;50.566;9.774;2023-04-19T04:40:47;8.50;1.00
12926;DHT22;6529;50.566;9.774;2023-04-19T04:43:13;8.50;1.00
12926;DHT22;6529;50.566;9.774;2023-04-19T04:45:38;8.40;1.00
12926;DHT22;6529;50.566;9.774;2023-04-19T04:48:04;8.40;1.00
12926;DHT22;6529;50.566;9.774;2023-04-19T04:50:30;8.30;1.00
12926;DHT22;6529;50.566;9.774;2023-04-19T04:52:55;8.20;1.00
12926;DHT22;6529;50.566;9.774;2023-04-19T04:55:21;8.20;1.00
12926;DHT22;6529;50.566;9.774;2023-04-19T04:57:47;8.20;1.00
12926;DHT22;6529;50.566;9.774;2023-04-19T05:00:12;8.10;1.00
12926;DHT22;6529;50.566;9.774;2023-04-19T05:02:38;8.10;1.00
12926;DHT22;6529;50.566;9.774;2023-04-19T05:05:04;8.10;1.00
12926;DHT22;6529;50.566;9.774;2023-04-19T05:07:30;8.10;1.00
12926;DHT22;6529;50.566;9.774;2023-04-19T05:09:55;8.10;1.00
12926;DHT22;6529;50.566;9.774;2023-04-19T05:12:21;8.10;1.00
12926;DHT22;6529;50.566;9.774;2023-04-19T05:14:46;8.20;1.00
12926;DHT22;6529;50.566;9.774;2023-04-19T05:17:12;8.10;99.90
12926;DHT22;6529;50.566;9.774;2023-04-19T05:19:37;8.10;1.00
12926;DHT22;6529;50.566;9.774;2023-04-19T05:22:03;8.00;1.00
12926;DHT22;6529;50.566;9.774;2023-04-19T05:24:28;8.00;1.00
12926;DHT22;6529;50.566;9.774;2023-04-19T05:26:54;8.00;99.90
12926;DHT22;6529;50.566;9.774;2023-04-19T05:29:20;8.00;1.00
12926;DHT22;6529;50.566;9.774;2023-04-19T05:31:46;8.00;99.90
12926;DHT22;6529;50.566;9.774;2023-04-19T05:34:11;7.90;99.90
12926;DHT22;6529;50.566;9.774;2023-04-19T05:36:37;8.00;1.00
12926;DHT22;6529;50.566;9.774;2023-04-19T05:39:02;7.90;99.90
12926;DHT22;6529;50.566;9.774;2023-04-19T05:41:28;7.90;99.90
12926;DHT22;6529;50.566;9.774;2023-04-19T05:43:53;7.80;99.90
12926;DHT22;6529;50.566;9.774;2023-04-19T05:46:19;7.80;99.90
12926;DHT22;6529;50.566;9.774;2023-04-19T05:48:45;7.90;99.90
12926;DHT22;6529;50.566;9.774;2023-04-19T05:51:10;7.90;1.00
12926;DHT22;6529;50.566;9.774;2023-04-19T05:53:36;8.00;99.90
12926;DHT22;6529;50.566;9.774;2023-04-19T05:56:02;7.90;99.90
12926;DHT22;6529;50.566;9.774;2023-04-19T05:58:27;8.00;99.90
12926;DHT22;6529;50.566;9.774;2023-04-19T06:00:53;8.10;99.90
12926;DHT22;6529;50.566;9.774;2023-04-19T06:03:18;8.30;1.00
12926;DHT22;6529;50.566;9.774;2023-04-19T06:05:44;8.50;30.60
12926;DHT22;6529;50.566;9.774;2023-04-19T06:08:09;8.40;99.90
12926;DHT22;6529;50.566;9.774;2023-04-19T06:10:36;8.30;99.90
12926;DHT22;6529;50.566;9.774;2023-04-19T06:13:02;8.30;99.90
12926;DHT22;6529;50.566;9.774;2023-04-19T06:15:28;8.30;99.90
12926;DHT22;6529;50.566;9.774;2023-04-19T06:17:55;8.40;1.00
12926;DHT22;6529;50.566;9.774;2023-04-19T06:20:20;8.40;99.90
12926;DHT22;6529;50.566;9.774;2023-04-19T06:22:47;8.50;99.90
12926;DHT22;6529;50.566;9.774;2023-04-19T06:25:13;8.50;1.00
12926;DHT22;6529;50.566;9.774;2023-04-19T06:27:39;8.50;1.00
12926;DHT22;6529;50.566;9.774;2023-04-19T06:30:05;8.50;1.00
12926;DHT22;6529;50.566;9.774;2023-04-19T06:32:31;8.60;1.00
12926;DHT22;6529;50.566;9.774;2023-04-19T06:34:56;8.70;90.60
12926;DHT22;6529;50.566;9.774;2023-04-19T06:37:22;8.60;1.00
12926;DHT22;6529;50.566;9.774;2023-04-19T06:39:48;8.70;1.00
12926;DHT22;6529;50.566;9.774;2023-04-19T06:42:13;8.80;1.00
12926;DHT22;6529;50.566;9.774;2023-04-19T06:44:39;8.80;1.00
12926;DHT22;6529;50.566;9.774;2023-04-19T06:47:05;8.80;1.00
12926;DHT22;6529;50.566;9.774;2023-04-19T06:49:30;8.70;1.00
12926;DHT22;6529;50.566;9.774;2023-04-19T06:51:57;8.70;1.00
12926;DHT22;6529;50.566;9.774;2023-04-19T06:54:22;8.70;1.00
12926;DHT22;6529;50.566;9.774;2023-04-19T06:56:49;8.70;99.90
12926;DHT22;6529;50.566;9.774;2023-04-19T06:59:19;8.70;1.00
12926;DHT22;6529;50.566;9.774;2023-04-19T07:01:45;8.70;99.90
12926;DHT22;6529;50.566;9.774;2023-04-19T07:04:12;8.80;1.00
12926;DHT22;6529;50.566;9.774;2023-04-19T07:06:38;8.80;99.90
12926;DHT22;6529;50.566;9.774;2023-04-19T07:09:05;8.70;99.90
12926;DHT22;6529;50.566;9.774;2023-04-19T07:11:32;8.60;99.90
12926;DHT22;6529;50.566;9.774;2023-04-19T07:13:57;8.60;99.90
12926;DHT22;6529;50.566;9.774;2023-04-19T07:16:25;8.50;1.00
12926;DHT22;6529;50.566;9.774;2023-04-19T07:18:51;8.40;42.90
12926;DHT22;6529;50.566;9.774;2023-04-19T07:21:17;8.40;53.60
12926;DHT22;6529;50.566;9.774;2023-04-19T07:23:42;8.30;1.00
12926;DHT22;6529;50.566;9.774;2023-04-19T07:26:08;8.40;99.90
12926;DHT22;6529;50.566;9.774;2023-04-19T07:28:34;8.50;99.90
12926;DHT22;6529;50.566;9.774;2023-04-19T07:30:59;8.40;99.90
12926;DHT22;6529;50.566;9.774;2023-04-19T07:33:27;8.30;37.10
12926;DHT22;6529;50.566;9.774;2023-04-19T07:35:53;8.30;24.50
12926;DHT22;6529;50.566;9.774;2023-04-19T07:38:19;8.20;99.90
12926;DHT22;6529;50.566;9.774;2023-04-19T07:40:45;8.30;1.00
12926;DHT22;6529;50.566;9.774;2023-04-19T07:43:10;8.40;1.00
12926;DHT22;6529;50.566;9.774;2023-04-19T07:45:36;8.60;99.90
12926;DHT22;6529;50.566;9.774;2023-04-19T07:48:03;8.60;1.00
12926;DHT22;6529;50.566;9.774;2023-04-19T07:50:28;8.40;1.00
12926;DHT22;6529;50.566;9.774;2023-04-19T07:52:54;8.40;1.00
12926;DHT22;6529;50.566;9.774;2023-04-19T07:55:23;8.50;99.90
12926;DHT22;6529;50.566;9.774;2023-04-19T07:57:49;8.50;1.00
12926;DHT22;6529;50.566;9.774;2023-04-19T08:00:16;8.60;1.00
12926;DHT22;6529;50.566;9.774;2023-04-19T08:02:43;8.70;1.00
12926;DHT22;6529;50.566;9.774;2023-04-19T08:05:09;8.90;99.90
12926;DHT22;6529;50.566;9.774;2023-04-19T08:07:35;8.90;1.00
12926;DHT22;6529;50.566;9.774;2023-04-19T08:10:01;9.00;1.00
12926;DHT22;6529;50.566;9.774;2023-04-19T08:12:26;9.00;1.00
12926;DHT22;6529;50.566;9.774;2023-04-19T08:14:52;9.20;1.00
12926;DHT22;6529;50.566;9.774;2023-04-19T08:17:17;9.40;99.90
12926;DHT22;6529;50.566;9.774;2023-04-19T08:19:46;9.60;1.00
12926;DHT22;6529;50.566;9.774;2023-04-19T08:22:14;9.50;99.90
12926;DHT22;6529;50.566;9.774;2023-04-19T08:24:41;9.60;99.90
12926;DHT22;6529;50.566;9.774;2023-04-19T08:27:08;9.60;1.00
12926;DHT22;6529;50.566;9.774;2023-04-19T08:29:33;9.60;1.00
12926;DHT22;6529;50.566;9.774;2023-04-19T08:31:59;9.60;1.00
12926;DHT22;6529;50.566;9.774;2023-04-19T08:34:26;9.60;99.90
12926;DHT22;6529;50.566;9.774;2023-04-19T08:36:52;9.70;99.90
12926;DHT22;6529;50.566;9.774;2023-04-19T08:39:17;10.00;99.90
12926;DHT22;6529;50.566;9.774;2023-04-19T08:41:43;10.10;99.90
12926;DHT22;6529;50.566;9.774;2023-04-19T08:44:10;10.20;99.90
12926;DHT22;6529;50.566;9.774;2023-04-19T08:46:36;10.20;1.00
12926;DHT22;6529;50.566;9.774;2023-04-19T08:49:04;10.20;1.00
12926;DHT22;6529;50.566;9.774;2023-04-19T08:51:31;10.30;1.00
12926;DHT22;6529;50.566;9.774;2023-04-19T08:53:57;10.50;1.00
12926;DHT22;6529;50.566;9.774;2023-04-19T08:56:24;10.60;99.90
12926;DHT22;6529;50.566;9.774;2023-04-19T08:58:50;10.80;99.90
12926;DHT22;6529;50.566;9.774;2023-04-19T09:01:16;10.70;99.90
12926;DHT22;6529;50.566;9.774;2023-04-19T09:03:43;10.80;99.90
12926;DHT22;6529;50.566;9.774;2023-04-19T09:06:11;11.00;99.90
12926;DHT22;6529;50.566;9.774;2023-04-19T09:08:38;11.00;35.90
12926;DHT22;6529;50.566;9.774;2023-04-19T09:11:05;11.10;23.70
12926;DHT22;6529;50.566;9.774;2023-04-19T09:13:31;11.10;67.80
12926;DHT22;6529;50.566;9.774;2023-04-19T09:15:57;11.10;76.60
12926;DHT22;6529;50.566;9.774;2023-04-19T09:18:25;11.20;6.20
12926;DHT22;6529;50.566;9.774;2023-04-19T09:20:51;11.40;1.00
12926;DHT22;6529;50.566;9.774;2023-04-19T09:23:22;11.60;1.00
12926;DHT22;6529;50.566;9.774;2023-04-19T09:25:57;11.70;1.00
12926;DHT22;6529;50.566;9.774;2023-04-19T09:28:27;11.50;1.00
12926;DHT22;6529;50.566;9.774;2023-04-19T09:30:54;11.30;1.00
12926;DHT22;6529;50.566;9.774;2023-04-19T09:33:34;11.30;1.00
12926;DHT22;6529;50.566;9.774;2023-04-19T09:36:01;11.40;1.00
12926;DHT22;6529;50.566;9.774;2023-04-19T09:38:27;11.40;1.00
12926;DHT22;6529;50.566;9.774;2023-04-19T09:41:05;11.40;1.00
12926;DHT22;6529;50.566;9.774;2023-04-19T09:43:31;11.50;1.00
12926;DHT22;6529;50.566;9.774;2023-04-19T09:45:56;11.50;1.00
12926;DHT22;6529;50.566;9.774;2023-04-19T09:48:22;11.70;1.00
12926;DHT22;6529;50.566;9.774;2023-04-19T09:50:57;12.10;1.00
12926;DHT22;6529;50.566;9.774;2023-04-19T09:53:25;12.40;1.00
12926;DHT22;6529;50.566;9.774;2023-04-19T09:55:51;12.60;1.00
12926;DHT22;6529;50.566;9.774;2023-04-19T09:58:18;12.50;1.00
12926;DHT22;6529;50.566;9.774;2023-04-19T10:00:44;12.20;1.00
12926;DHT22;6529;50.566;9.774;2023-04-19T10:03:15;12.30;1.00
12926;DHT22;6529;50.566;9.774;2023-04-19T10:05:42;12.30;1.00
12926;DHT22;6529;50.566;9.774;2023-04-19T10:08:09;12.50;1.00
12926;DHT22;6529;50.566;9.774;2023-04-19T10:10:36;12.60;1.00
12926;DHT22;6529;50.566;9.774;2023-04-19T10:13:03;12.60;1.00
12926;DHT22;6529;50.566;9.774;2023-04-19T10:15:31;12.30;1.00
12926;DHT22;6529;50.566;9.774;2023-04-19T10:17:58;12.30;1.00
12926;DHT22;6529;50.566;9.774;2023-04-19T10:20:31;12.60;1.00
12926;DHT22;6529;50.566;9.774;2023-04-19T10:22:58;12.70;1.00
12926;DHT22;6529;50.566;9.774;2023-04-19T10:25:28;12.90;1.00
12926;DHT22;6529;50.566;9.774;2023-04-19T10:27:54;13.20;1.00
12926;DHT22;6529;50.566;9.774;2023-04-19T10:30:24;13.30;1.00
12926;DHT22;6529;50.566;9.774;2023-04-19T10:32:57;13.80;1.00
12926;DHT22;6529;50.566;9.774;2023-04-19T10:35:27;14.00;1.00
12926;DHT22;6529;50.566;9.774;2023-04-19T10:38:14;13.90;1.00
12926;DHT22;6529;50.566;9.774;2023-04-19T10:40:57;13.90;1.00
12926;DHT22;6529;50.566;9.774;2023-04-19T10:43:32;14.20;1.00
12926;DHT22;6529;50.566;9.774;2023-04-19T10:48:32;13.90;1.00
12926;DHT22;6529;50.566;9.774;2023-04-19T10:53:59;14.20;1.00
12926;DHT22;6529;50.566;9.774;2023-04-19T11:01:42;14.00;99.90
12926;DHT22;6529;50.566;9.774;2023-04-19T11:06:36;14.10;99.90
12926;DHT22;6529;50.566;9.774;2023-04-19T11:09:02;14.20;99.90
12926;DHT22;6529;50.566;9.774;2023-04-19T11:11:35;14.10;99.90
12926;DHT22;6529;50.566;9.774;2023-04-19T11:14:02;14.20;99.90
12926;DHT22;6529;50.566;9.774;2023-04-19T11:16:29;14.50;99.90
12926;DHT22;6529;50.566;9.774;2023-04-19T11:18:54;14.50;99.90
12926;DHT22;6529;50.566;9.774;2023-04-19T11:21:20;14.50;99.90
12926;DHT22;6529;50.566;9.774;2023-04-19T11:23:46;14.40;99.90
12926;DHT22;6529;50.566;9.774;2023-04-19T11:26:13;14.00;99.90
12926;DHT22;6529;50.566;9.774;2023-04-19T11:28:39;14.40;99.90
12926;DHT22;6529;50.566;9.774;2023-04-19T11:31:05;14.70;99.90
12926;DHT22;6529;50.566;9.774;2023-04-19T11:33:34;15.20;99.90
12926;DHT22;6529;50.566;9.774;2023-04-19T11:36:00;15.10;99.90
12926;DHT22;6529;50.566;9.774;2023-04-19T11:38:29;15.60;99.90
12926;DHT22;6529;50.566;9.774;2023-04-19T11:41:02;15.70;99.90
12926;DHT22;6529;50.566;9.774;2023-04-19T11:43:35;15.40;99.90
12926;DHT22;6529;50.566;9.774;2023-04-19T11:46:08;15.40;99.90
12926;DHT22;6529;50.566;9.774;2023-04-19T11:48:35;15.40;99.90
12926;DHT22;6529;50.566;9.774;2023-04-19T11:51:01;15.00;99.90
12926;DHT22;6529;50.566;9.774;2023-04-19T11:53:28;15.30;99.90
12926;DHT22;6529;50.566;9.774;2023-04-19T11:56:03;15.00;99.90
12926;DHT22;6529;50.566;9.774;2023-04-19T11:59:03;15.10;99.90
12926;DHT22;6529;50.566;9.774;2023-04-19T12:01:21;15.20;99.90
12926;DHT22;6529;50.566;9.774;2023-04-19T12:03:54;15.20;99.90
12926;DHT22;6529;50.566;9.774;2023-04-19T12:06:25;15.40;99.90
12926;DHT22;6529;50.566;9.774;2023-04-19T12:08:53;15.70;99.90
12926;DHT22;6529;50.566;9.774;2023-04-19T12:11:21;15.70;99.90
12926;DHT22;6529;50.566;9.774;2023-04-19T12:14:06;15.80;99.90
12926;DHT22;6529;50.566;9.774;2023-04-19T12:16:31;16.20;99.90
12926;DHT22;6529;50.566;9.774;2023-04-19T12:18:57;16.20;99.90
12926;DHT22;6529;50.566;9.774;2023-04-19T12:21:30;16.50;99.90
12926;DHT22;6529;50.566;9.774;2023-04-19T12:23:58;16.40;99.90
12926;DHT22;6529;50.566;9.774;2023-04-19T12:26:26;16.00;99.90
12926;DHT22;6529;50.566;9.774;2023-04-19T12:28:56;15.30;99.90
12926;DHT22;6529;50.566;9.774;2023-04-19T12:31:22;15.10;99.90
12926;DHT22;6529;50.566;9.774;2023-04-19T12:33:48;15.60;99.90
12926;DHT22;6529;50.566;9.774;2023-04-19T12:36:14;15.90;99.90
12926;DHT22;6529;50.566;9.774;2023-04-19T12:38:40;16.50;99.90
12926;DHT22;6529;50.566;9.774;2023-04-19T12:41:05;16.40;99.90
12926;DHT22;6529;50.566;9.774;2023-04-19T12:43:31;16.40;99.90
12926;DHT22;6529;50.566;9.774;2023-04-19T12:45:57;16.10;99.90
12926;DHT22;6529;50.566;9.774;2023-04-19T12:48:24;16.10;99.90
12926;DHT22;6529;50.566;9.774;2023-04-19T12:50:50;16.10;99.90
12926;DHT22;6529;50.566;9.774;2023-04-19T12:53:15;16.30;99.90
12926;DHT22;6529;50.566;9.774;2023-04-19T12:55:41;16.00;99.90
12926;DHT22;6529;50.566;9.774;2023-04-19T12:58:12;16.10;99.90
12926;DHT22;6529;50.566;9.774;2023-04-19T13:00:37;16.30;99.90
12926;DHT22;6529;50.566;9.774;2023-04-19T13:03:03;16.30;99.90
12926;DHT22;6529;50.566;9.774;2023-04-19T13:05:28;16.30;99.90
12926;DHT22;6529;50.566;9.774;2023-04-19T13:07:54;16.20;99.90
12926;DHT22;6529;50.566;9.774;2023-04-19T13:10:20;16.20;99.90
12926;DHT22;6529;50.566;9.774;2023-04-19T13:12:46;16.20;99.90
12926;DHT22;6529;50.566;9.774;2023-04-19T13:15:12;15.60;99.90
12926;DHT22;6529;50.566;9.774;2023-04-19T13:17:37;15.30;99.90
12926;DHT22;6529;50.566;9.774;2023-04-19T13:20:03;15.70;99.90
12926;DHT22;6529;50.566;9.774;2023-04-19T13:22:31;16.10;99.90
12926;DHT22;6529;50.566;9.774;2023-04-19T13:24:56;16.10;99.90
12926;DHT22;6529;50.566;9.774;2023-04-19T13:27:22;16.30;99.90
12926;DHT22;6529;50.566;9.774;2023-04-19T13:29:48;16.20;99.90
12926;DHT22;6529;50.566;9.774;2023-04-19T13:32:13;15.40;99.90
12926;DHT22;6529;50.566;9.774;2023-04-19T13:34:39;15.20;99.90
12926;DHT22;6529;50.566;9.774;2023-04-19T13:37:06;15.40;99.90
12926;DHT22;6529;50.566;9.774;2023-04-19T13:39:32;15.50;99.90
12926;DHT22;6529;50.566;9.774;2023-04-19T13:41:58;15.90;99.90
12926;DHT22;6529;50.566;9.774;2023-04-19T13:44:23;15.50;99.90
12926;DHT22;6529;50.566;9.774;2023-04-19T13:46:50;15.50;99.90
12926;DHT22;6529;50.566;9.774;2023-04-19T13:49:16;14.80;99.90
12926;DHT22;6529;50.566;9.774;2023-04-19T13:51:42;14.80;99.90
12926;DHT22;6529;50.566;9.774;2023-04-19T13:54:08;15.50;99.90
12926;DHT22;6529;50.566;9.774;2023-04-19T13:56:33;15.80;99.90
12926;DHT22;6529;50.566;9.774;2023-04-19T13:58:59;16.20;99.90
12926;DHT22;6529;50.566;9.774;2023-04-19T14:01:24;16.50;99.90
12926;DHT22;6529;50.566;9.774;2023-04-19T14:03:50;16.50;99.90
12926;DHT22;6529;50.566;9.774;2023-04-19T14:06:15;16.90;99.90
12926;DHT22;6529;50.566;9.774;2023-04-19T14:08:41;16.40;99.90
12926;DHT22;6529;50.566;9.774;2023-04-19T14:11:07;15.60;99.90
12926;DHT22;6529;50.566;9.774;2023-04-19T14:13:32;15.70;99.90
12926;DHT22;6529;50.566;9.774;2023-04-19T14:15:58;16.00;99.90
12926;DHT22;6529;50.566;9.774;2023-04-19T14:18:23;15.90;99.90
12926;DHT22;6529;50.566;9.774;2023-04-19T14:20:49;15.20;99.90
12926;DHT22;6529;50.566;9.774;2023-04-19T14:23:15;15.60;99.90
12926;DHT22;6529;50.566;9.774;2023-04-19T14:25:40;14.90;99.90
12926;DHT22;6529;50.566;9.774;2023-04-19T14:28:06;14.40;99.90
12926;DHT22;6529;50.566;9.774;2023-04-19T14:30:32;14.50;99.90
12926;DHT22;6529;50.566;9.774;2023-04-19T14:32:57;14.70;99.90
12926;DHT22;6529;50.566;9.774;2023-04-19T14:35:23;15.20;99.90
12926;DHT22;6529;50.566;9.774;2023-04-19T14:37:48;15.50;99.90
12926;DHT22;6529;50.566;9.774;2023-04-19T14:40:14;15.80;99.90
12926;DHT22;6529;50.566;9.774;2023-04-19T14:42:40;16.20;99.90
12926;DHT22;6529;50.566;9.774;2023-04-19T14:45:06;16.00;99.90
12926;DHT22;6529;50.566;9.774;2023-04-19T14:47:32;15.20;99.90
12926;DHT22;6529;50.566;9.774;2023-04-19T14:49:58;14.80;99.90
12926;DHT22;6529;50.566;9.774;2023-04-19T14:52:23;14.20;99.90
12926;DHT22;6529;50.566;9.774;2023-04-19T14:54:50;13.50;99.90
12926;DHT22;6529;50.566;9.774;2023-04-19T14:57:15;13.30;99.90
12926;DHT22;6529;50.566;9.774;2023-04-19T14:59:41;14.10;99.90
12926;DHT22;6529;50.566;9.774;2023-04-19T15:02:07;15.00;99.90
12926;DHT22;6529;50.566;9.774;2023-04-19T15:04:35;15.70;99.90
12926;DHT22;6529;50.566;9.774;2023-04-19T15:07:01;16.10;99.90
12926;DHT22;6529;50.566;9.774;2023-04-19T15:09:27;16.30;99.90
12926;DHT22;6529;50.566;9.774;2023-04-19T15:11:52;15.50;99.90
12926;DHT22;6529;50.566;9.774;2023-04-19T15:14:18;14.60;99.90
12926;DHT22;6529;50.566;9.774;2023-04-19T15:16:44;13.90;99.90
12926;DHT22;6529;50.566;9.774;2023-04-19T15:19:10;13.80;99.90
12926;DHT22;6529;50.566;9.774;2023-04-19T15:21:35;13.50;99.90
12926;DHT22;6529;50.566;9.774;2023-04-19T15:24:01;13.40;99.90
12926;DHT22;6529;50.566;9.774;2023-04-19T15:26:27;13.20;99.90
12926;DHT22;6529;50.566;9.774;2023-04-19T15:28:53;13.60;99.90
12926;DHT22;6529;50.566;9.774;2023-04-19T15:31:20;14.00;99.90
12926;DHT22;6529;50.566;9.774;2023-04-19T15:33:45;14.20;99.90
12926;DHT22;6529;50.566;9.774;2023-04-19T15:36:11;14.50;99.90
12926;DHT22;6529;50.566;9.774;2023-04-19T15:38:37;15.30;99.90
12926;DHT22;6529;50.566;9.774;2023-04-19T15:41:02;15.30;99.90
12926;DHT22;6529;50.566;9.774;2023-04-19T15:43:28;15.40;99.90
12926;DHT22;6529;50.566;9.774;2023-04-19T15:45:54;15.10;99.90
12926;DHT22;6529;50.566;9.774;2023-04-19T15:48:20;14.30;99.90
12926;DHT22;6529;50.566;9.774;2023-04-19T15:50:46;13.40;99.90
12926;DHT22;6529;50.566;9.774;2023-04-19T15:53:11;13.10;99.90
12926;DHT22;6529;50.566;9.774;2023-04-19T15:55:38;13.00;99.90
12926;DHT22;6529;50.566;9.774;2023-04-19T15:58:04;12.80;99.90
12926;DHT22;6529;50.566;9.774;2023-04-19T16:00:31;12.50;99.90
12926;DHT22;6529;50.566;9.774;2023-04-19T16:02:56;12.60;99.90
12926;DHT22;6529;50.566;9.774;2023-04-19T16:05:22;13.50;99.90
12926;DHT22;6529;50.566;9.774;2023-04-19T16:07:59;14.00;99.90